createdAt,value
2023-05-12T00:02:34.369Z,34.91
2023-05-12T00:07:36.766Z,34.82
2023-05-12T00:12:38.973Z,34.73
2023-05-12T00:17:41.189Z,35.00
2023-05-12T00:22:43.342Z,35.61
2023-05-12T00:27:45.528Z,35.28
2023-05-12T00:32:47.743Z,35.39
2023-05-12T00:37:49.898Z,35.73
2023-05-12T00:42:52.196Z,36.05
2023-05-12T00:47:54.535Z,36.30
2023-05-12T00:52:58.113Z,36.52
2023-05-12T00:58:00.275Z,36.80
2023-05-12T01:03:02.753Z,37.08
2023-05-12T01:08:05.953Z,37.11
2023-05-12T01:13:08.462Z,37.35
2023-05-12T01:18:12.104Z,37.46
2023-05-12T01:23:18.262Z,37.76
2023-05-12T01:28:21.467Z,37.87
2023-05-12T01:33:23.760Z,38.24
2023-05-12T01:38:26.248Z,38.74
2023-05-12T01:43:28.528Z,38.84
2023-05-12T01:48:30.716Z,38.90
2023-05-12T01:53:32.794Z,38.89
2023-05-12T01:58:34.969Z,39.38
2023-05-12T02:03:37.722Z,39.44
2023-05-12T02:08:39.860Z,39.61
2023-05-12T02:13:45.434Z,40.16
2023-05-12T02:18:47.780Z,40.42
2023-05-12T02:23:50.616Z,40.85
2023-05-12T02:28:52.692Z,40.98
2023-05-12T02:33:54.982Z,41.12
2023-05-12T02:38:57.177Z,41.55
2023-05-12T02:43:59.248Z,41.73
2023-05-12T02:49:01.329Z,41.91
2023-05-12T02:54:03.518Z,41.98
2023-05-12T02:59:05.601Z,42.46
2023-05-12T03:04:07.778Z,42.56
2023-05-12T03:09:09.971Z,42.66
2023-05-12T03:14:12.195Z,42.91
2023-05-12T03:19:14.435Z,42.90
2023-05-12T03:24:16.730Z,43.27
2023-05-12T03:29:18.907Z,43.39
2023-05-12T03:34:21.094Z,43.25
2023-05-12T03:39:24.503Z,43.48
2023-05-12T03:44:26.893Z,43.44
2023-05-12T03:49:29.080Z,43.38
2023-05-12T03:54:31.176Z,43.80
2023-05-12T03:59:33.340Z,43.88
2023-05-12T04:04:36.352Z,43.95
2023-05-12T04:09:38.534Z,43.77
2023-05-12T04:14:43.123Z,43.47
2023-05-12T04:19:46.390Z,43.85
2023-05-12T04:24:48.772Z,43.52
2023-05-12T04:29:51.261Z,43.49
2023-05-12T04:34:56.119Z,43.22
2023-05-12T04:39:58.300Z,43.36
2023-05-12T04:45:00.585Z,42.96
2023-05-12T04:50:04.035Z,42.86
2023-05-12T04:55:07.367Z,43.08
2023-05-12T05:00:10.215Z,42.76
2023-05-12T05:05:12.307Z,42.76
2023-05-12T05:10:14.676Z,42.87
2023-05-12T05:15:16.860Z,42.50
2023-05-12T05:20:19.885Z,42.58
2023-05-12T05:25:22.466Z,42.49
2023-05-12T05:30:24.659Z,42.37
2023-05-12T05:35:26.828Z,42.45
2023-05-12T05:40:33.818Z,42.49
2023-05-12T05:45:40.928Z,42.10
2023-05-12T05:50:43.724Z,42.14
2023-05-12T05:55:46.635Z,42.15
2023-05-12T06:00:49.423Z,41.77
2023-05-12T06:05:51.603Z,41.83
2023-05-12T06:10:53.787Z,41.36
2023-05-12T06:15:55.971Z,41.25
2023-05-12T06:20:58.054Z,40.83
2023-05-12T06:26:00.345Z,40.57
2023-05-12T06:31:02.532Z,40.27
2023-05-12T06:36:05.531Z,40.07
2023-05-12T06:41:07.835Z,39.65
2023-05-12T06:46:10.316Z,39.48
2023-05-12T06:51:13.115Z,39.36
2023-05-12T06:56:16.624Z,39.00
2023-05-12T07:01:18.841Z,38.67
2023-05-12T07:06:21.503Z,38.52
2023-05-12T07:11:23.697Z,38.34
2023-05-12T07:16:26.034Z,38.15
2023-05-12T07:21:29.180Z,37.53
2023-05-12T07:26:31.985Z,37.38
2023-05-12T07:31:34.302Z,37.18
2023-05-12T07:36:37.071Z,36.75
2023-05-12T07:41:39.248Z,36.04
2023-05-12T07:46:41.965Z,35.79
2023-05-12T07:51:44.130Z,35.36
2023-05-12T07:56:46.313Z,34.86
2023-05-12T08:01:48.842Z,34.39
2023-05-12T08:06:51.098Z,33.83
2023-05-12T08:11:53.387Z,33.50
2023-05-12T08:16:55.506Z,33.20
2023-05-12T08:21:57.757Z,32.68
2023-05-12T08:26:59.805Z,32.01
2023-05-12T08:32:02.630Z,31.12
2023-05-12T08:37:05.996Z,30.66
2023-05-12T08:42:20.622Z,30.38
2023-05-12T08:47:25.226Z,29.84
2023-05-12T08:52:33.789Z,29.59
2023-05-12T08:57:38.184Z,29.44
2023-05-12T09:02:53.055Z,29.10
2023-05-12T09:07:57.449Z,28.99
2023-05-12T09:13:03.957Z,28.73
2023-05-12T09:18:05.973Z,28.16
2023-05-12T09:23:14.344Z,28.14
2023-05-12T09:28:17.240Z,27.63
2023-05-12T09:33:19.221Z,27.51
2023-05-12T09:38:21.224Z,27.35
2023-05-12T09:43:23.183Z,27.04
2023-05-12T09:48:27.381Z,26.94
2023-05-12T09:53:29.507Z,27.05
2023-05-12T09:58:32.803Z,27.08
2023-05-12T10:03:37.751Z,26.76
2023-05-12T10:08:57.549Z,26.69
2023-05-12T10:14:00.347Z,26.62
2023-05-12T10:19:03.996Z,26.29
2023-05-12T10:24:07.195Z,26.30
2023-05-12T10:29:09.869Z,26.03
2023-05-12T10:34:18.311Z,26.09
2023-05-12T10:39:21.406Z,25.93
2023-05-12T10:44:28.114Z,26.08
2023-05-12T10:49:39.907Z,25.84
2023-05-12T10:54:44.149Z,25.60
2023-05-12T10:59:57.006Z,25.24
2023-05-12T11:05:59.105Z,25.54
2023-05-12T11:11:02.888Z,25.27
2023-05-12T11:16:06.521Z,25.21
2023-05-12T11:21:11.551Z,25.02
2023-05-12T11:26:18.053Z,24.98
2023-05-12T11:31:21.786Z,24.88
2023-05-12T11:36:23.839Z,24.72
2023-05-12T11:41:26.025Z,24.57
2023-05-12T11:46:29.272Z,24.26
2023-05-12T11:51:31.724Z,24.02
2023-05-12T11:56:34.319Z,24.02
2023-05-12T12:01:46.168Z,24.11
2023-05-12T12:06:48.010Z,24.20
2023-05-12T12:11:50.208Z,23.96
2023-05-12T12:16:52.083Z,23.92
2023-05-12T12:21:55.381Z,23.65
2023-05-12T12:26:56.997Z,23.55
2023-05-12T12:31:59.448Z,23.54
2023-05-12T12:37:01.324Z,23.41
2023-05-12T12:42:04.321Z,23.43
2023-05-12T12:47:06.318Z,23.39
2023-05-12T12:52:08.549Z,23.12
2023-05-12T12:57:10.464Z,23.13
2023-05-12T13:02:12.686Z,23.02
2023-05-12T13:07:15.154Z,22.78
2023-05-12T13:12:17.121Z,22.77
2023-05-12T13:17:19.199Z,22.66
2023-05-12T13:22:21.805Z,22.51
2023-05-12T13:27:23.670Z,22.57
2023-05-12T13:32:25.799Z,22.42
2023-05-12T13:37:27.938Z,22.29
2023-05-12T13:42:29.939Z,22.26
2023-05-12T13:47:32.348Z,21.97
2023-05-12T13:52:34.501Z,21.57
2023-05-12T13:57:36.366Z,20.17
2023-05-12T14:02:38.461Z,19.74
2023-05-12T14:07:42.060Z,18.03
2023-05-12T14:12:44.764Z,17.39
2023-05-12T14:17:46.769Z,16.66
2023-05-12T14:22:48.920Z,16.19
2023-05-12T14:27:51.020Z,15.65
2023-05-12T14:32:53.157Z,14.88
2023-05-12T14:37:56.294Z,13.27
2023-05-12T14:42:58.580Z,12.47
2023-05-12T14:48:00.673Z,11.26
2023-05-12T14:53:02.472Z,10.66
2023-05-12T14:58:04.423Z,10.13
2023-05-12T15:03:07.101Z,9.29
2023-05-12T15:08:10.124Z,8.25
2023-05-12T15:13:13.358Z,7.46
2023-05-12T15:18:15.156Z,7.26
2023-05-12T15:23:17.407Z,6.95
2023-05-12T15:28:20.410Z,6.48
2023-05-12T15:33:22.688Z,6.40
2023-05-12T15:38:24.872Z,6.06
2023-05-12T15:43:26.751Z,5.76
2023-05-12T15:48:30.090Z,5.59
2023-05-12T15:53:32.152Z,5.75
2023-05-12T15:58:34.966Z,5.44
2023-05-12T16:03:37.313Z,5.29
2023-05-12T16:08:39.506Z,5.23
2023-05-12T16:13:42.003Z,5.18
2023-05-12T16:18:44.021Z,5.20
2023-05-12T16:23:46.469Z,5.35
2023-05-12T16:28:48.651Z,5.77
2023-05-12T16:33:50.635Z,6.13
2023-05-12T16:38:53.131Z,6.26
2023-05-12T16:43:56.443Z,6.15
2023-05-12T16:48:58.618Z,6.77
2023-05-12T16:54:00.513Z,7.58
2023-05-12T16:59:03.187Z,8.37
2023-05-12T17:04:06.469Z,9.01
2023-05-12T17:09:08.993Z,9.81
2023-05-12T17:14:12.005Z,10.18
2023-05-12T17:19:14.730Z,10.16
2023-05-12T17:24:17.282Z,9.98
2023-05-12T17:29:19.982Z,10.19
2023-05-12T17:34:21.881Z,10.79
2023-05-12T17:39:23.799Z,11.24
2023-05-12T17:44:25.715Z,11.81
2023-05-12T17:49:27.694Z,12.35
2023-05-12T17:54:29.483Z,12.91
2023-05-12T17:59:31.863Z,13.49
2023-05-12T18:04:34.356Z,14.11
2023-05-12T18:09:36.369Z,14.54
2023-05-12T18:14:38.415Z,15.00
2023-05-12T18:19:40.401Z,15.49
2023-05-12T18:24:42.592Z,16.04
2023-05-12T18:29:45.082Z,16.45
2023-05-12T18:34:47.173Z,17.10
2023-05-12T18:39:49.541Z,17.82
2023-05-12T18:44:53.256Z,18.35
2023-05-12T18:49:55.340Z,19.04
2023-05-12T18:54:57.527Z,19.26
2023-05-12T18:59:59.489Z,19.71
2023-05-12T19:05:01.888Z,20.04
2023-05-12T19:10:04.823Z,20.48
2023-05-12T19:15:07.801Z,21.04
2023-05-12T19:20:10.414Z,21.32
2023-05-12T19:25:17.188Z,21.71
2023-05-12T19:30:19.591Z,22.77
2023-05-12T19:35:22.429Z,22.87
2023-05-12T19:40:24.766Z,23.01
2023-05-12T19:45:26.980Z,23.25
2023-05-12T19:50:29.238Z,24.10
2023-05-12T19:55:31.523Z,24.23
2023-05-12T20:00:33.625Z,24.73
2023-05-12T20:05:38.558Z,25.06
2023-05-12T20:10:40.639Z,25.90
2023-05-12T20:15:43.607Z,26.79
2023-05-12T20:20:45.710Z,27.28
2023-05-12T20:29:28.190Z,27.78
2023-05-12T20:34:32.301Z,27.98
2023-05-12T20:39:35.479Z,28.44
2023-05-12T20:44:39.021Z,28.96
2023-05-12T20:49:42.921Z,29.25
2023-05-12T20:54:46.466Z,29.67
2023-05-12T20:59:52.742Z,30.07
2023-05-12T21:04:56.357Z,31.36
2023-05-12T21:10:00.802Z,31.39
2023-05-12T21:15:04.829Z,31.55
2023-05-12T21:20:10.210Z,31.35
2023-05-12T21:25:13.696Z,31.59
2023-05-12T21:30:17.314Z,31.95
2023-05-12T21:35:21.039Z,32.04
2023-05-12T21:40:24.447Z,32.34
2023-05-12T21:45:28.375Z,32.70
2023-05-12T21:50:31.885Z,32.75
2023-05-12T21:55:35.210Z,32.86
2023-05-12T22:00:38.644Z,33.13
2023-05-12T22:05:42.145Z,33.16
2023-05-12T22:10:45.954Z,33.56
2023-05-12T22:15:49.290Z,34.09
2023-05-12T22:20:53.501Z,34.26
2023-05-12T22:25:56.910Z,34.58
2023-05-12T22:31:00.325Z,35.13
2023-05-12T22:36:04.041Z,35.27
2023-05-12T22:41:07.352Z,35.87
2023-05-12T22:46:10.879Z,36.07
2023-05-12T22:51:14.283Z,36.68
2023-05-12T22:56:17.716Z,37.44
2023-05-12T23:01:21.250Z,37.69
2023-05-12T23:06:24.825Z,37.99
2023-05-12T23:11:28.244Z,38.34
2023-05-12T23:16:31.707Z,38.57
2023-05-12T23:21:35.269Z,38.66
2023-05-12T23:26:38.909Z,38.75
2023-05-12T23:31:42.876Z,39.41
2023-05-12T23:36:46.429Z,40.03
2023-05-12T23:41:50.153Z,39.57
2023-05-12T23:46:53.681Z,40.17
2023-05-12T23:51:57.286Z,40.42
2023-05-12T23:57:00.707Z,40.39
